URRP 300130Z 33001MPS 9000 NSC 15/15 Q1010 R05/290050 TEMPO 0300 FG BKN001 BKN020CB RMK QFE753/1004
QNH:(hPa/inHg/mmHg)1010 / 29.83 / 758
QFE:(hPa/inHg/mmHg)1000 / 29.52 / 750
Temperature15
Dew Point15
Visibility0300
WeatherFog
Cloud CoverBKN (100);
BKN (2000);
Transition Altitude3500 ft.
Transition LevelFL60
SQUAWK